Time;durP1;ratioP1;P1;durP2;ratioP2;P2;SDS_P1;SDS_P2;PMS_P1;PMS_P2;Temp;Humidity;BMP_temperature;BMP_pressure;BME280_temperature;BME280_humidity;BME280_pressure;Samples;Min_cycle;Max_cycle;Signal;HPM_P1;HPM_P2
2023/02/26 08:38:49;;;;;;;;;;;;;;;;;;5112068;27;19955;-78
2023/02/26 08:41:14;;;;;;;;;;;;;;;;;;5097167;28;19947;-78
2023/02/26 08:43:39;;;;;;;;;;;;;;;;;;5097000;28;20048;-83
2023/02/26 08:46:04;;;;;;;;;;;;;;;;;;5079450;28;20387;-78
2023/02/26 08:48:29;;;;;;;;;;;;;;;;;;5079444;28;20261;-76
2023/02/26 08:50:55;;;;;;;;;;;;;;;;;;5080730;28;20367;-77
2023/02/26 08:53:23;;;;;;;;;;;;;;;;;;5098639;28;19916;-78
2023/02/26 08:55:48;;;;;;;;;;;;;;;;;;5079167;28;19908;-76
2023/02/26 08:58:13;;;;;;;;;;;;;;;;;;5082635;28;19923;-76
2023/02/26 09:00:38;;;;;;;;;;;;;;;;;;5079230;28;19916;-74
2023/02/26 09:03:03;;;;;;;;;;;;;;;;;;5108929;28;20432;-76
2023/02/26 09:05:28;;;;;;;;;;;;;;;;;;5106065;28;19927;-75
2023/02/26 09:07:53;;;;;;;;;;;;;;;;;;5095420;28;19912;-80
2023/02/26 09:10:18;;;;;;;;;;;;;;;;;;5080316;28;19912;-77
2023/02/26 09:12:44;;;;;;;;;;;;;;;;;;5081406;28;20364;-80
2023/02/26 09:15:09;;;;;;;;;;;;;;;;;;5100977;28;19912;-82
2023/02/26 09:17:34;;;;;;;;;;;;;;;;;;5083518;28;20423;-83
2023/02/26 09:19:59;;;;;;;;;;;;;;;;;;5080849;28;20433;-82
2023/02/26 09:22:27;;;;;;;;;;;;;;;;;;5077282;28;19916;-82
2023/02/26 09:24:54;;;;;;;;;;;;;;;;;;5076660;28;19919;-83
2023/02/26 09:27:19;;;;;;;;;;;;;;;;;;5081400;28;19920;-86
2023/02/26 09:29:44;;;;;;;;;;;;;;;;;;5076864;28;19927;-84
2023/02/26 09:32:12;;;;;;;;;;;;;;;;;;5079547;28;19919;-84
2023/02/26 09:34:37;;;;;;;;;;;;;;;;;;5080003;28;20367;-86
2023/02/26 09:42:55;;;;;;;;;;;;;;;;;;4989641;28;20282;-86
2023/02/26 09:45:26;;;;;;;;;;;;;;;;;;4985164;28;19918;-85
2023/02/26 09:47:58;;;;;;;;;;;;;;;;;;4966964;28;20017;-85
2023/02/26 09:50:23;;;;;;;;;;;;;;;;;;4966116;28;19921;-84
2023/02/26 09:52:51;;;;;;;;;;;;;;;;;;4966545;28;19922;-84
2023/02/26 09:55:17;;;;;;;;;;;;;;;;;;4963971;28;20401;-85
2023/02/26 09:57:42;;;;;;;;;;;;;;;;;;4968028;28;19918;-84
2023/02/26 10:00:07;;;;;;;;;;;;;;;;;;4964903;28;20033;-84
2023/02/26 10:02:33;;;;;;;;;;;;;;;;;;4967401;28;19914;-84
2023/02/26 10:05:00;;;;;;;;;;;;;;;;;;4965343;28;20395;-85
2023/02/26 10:07:25;;;;;;;;;;;;;;;;;;4966278;28;19938;-85
2023/02/26 10:09:51;;;;;;;;;;;;;;;;;;4989695;28;19917;-84
2023/02/26 10:12:16;;;;;;;;;;;;;;;;;;5025294;28;19944;-85
2023/02/26 10:14:43;;;;;;;;;;;;;;;;;;5046685;28;20008;-85
2023/02/26 10:17:20;;;;;;;;;;;;;;;;;;5045613;28;19927;-85
2023/02/26 10:19:45;;;;;;;;;;;;;;;;;;5030214;28;19917;-84
2023/02/26 10:22:11;;;;;;;;;;;;;;;;;;5044038;28;19919;-85
2023/02/26 10:24:36;;;;;;;;;;;;;;;;;;5037666;28;20378;-79
2023/02/26 10:27:01;;;;;;;;;;;;;;;;;;5046512;28;19959;-83
2023/02/26 10:29:26;;;;;;;;;;;;;;;;;;5046221;28;19924;-82
2023/02/26 10:31:51;;;;;;;;;;;;;;;;;;5025246;28;19949;-81
2023/02/26 10:34:16;;;;;;;;;;;;;;;;;;5047851;28;19920;-82
2023/02/26 10:36:41;;;;;;;;;;;;;;;;;;5044387;28;19971;-82
2023/02/26 10:39:06;;;;;;;;;;;;;;;;;;5027214;28;19974;-83
2023/02/26 10:41:32;;;;;;;;;;;;;;;;;;5041835;28;19935;-82
2023/02/26 10:43:57;;;;;;;;;;;;;;;;;;5027358;28;19920;-82
2023/02/26 10:46:23;;;;;;;;;;;;;;;;;;5028593;28;19920;-83
2023/02/26 10:48:48;;;;;;;;;;;;;;;;;;5045834;28;20102;-82
2023/02/26 10:51:13;;;;;;;;;;;;;;;;;;5042487;28;19917;-82
2023/02/26 10:53:38;;;;;;;;;;;;;;;;;;5047130;28;19962;-82
2023/02/26 10:56:04;;;;;;;;;;;;;;;;;;5027791;28;20349;-82
2023/02/26 10:58:29;;;;;;;;;;;;;;;;;;5027797;28;19936;-83
2023/02/26 11:00:54;;;;;;;;;;;;;;;;;;5029449;28;19909;-81
2023/02/26 11:03:19;;;;;;;;;;;;;;;;;;5045654;28;20023;-79
2023/02/26 11:05:44;;;;;;;;;;;;;;;;;;5046196;28;20483;-79
2023/02/26 11:08:09;;;;;;;;;;;;;;;;;;5026446;28;20457;-80
2023/02/26 11:10:35;;;;;;;;;;;;;;;;;;5049952;28;19917;-80
2023/02/26 11:13:00;;;;;;;;;;;;;;;;;;5022337;28;19913;-80
2023/02/26 11:15:25;;;;;;;;;;;;;;;;;;5049714;28;19912;-80
2023/02/26 11:17:50;;;;;;;;;;;;;;;;;;5031400;28;20293;-81
2023/02/26 11:20:15;;;;;;;;;;;;;;;;;;5030062;28;19956;-81
2023/02/26 11:22:41;;;;;;;;;;;;;;;;;;5024282;28;19958;-81
2023/02/26 11:25:06;;;;;;;;;;;;;;;;;;5044693;28;19935;-80
2023/02/26 11:27:31;;;;;;;;;;;;;;;;;;5031070;28;20289;-82
2023/02/26 11:29:56;;;;;;;;;;;;;;;;;;5031408;28;19917;-82
2023/02/26 11:32:21;;;;;;;;;;;;;;;;;;5043631;28;19921;-80
2023/02/26 11:34:47;;;;;;;;;;;;;;;;;;5026050;28;19913;-81
2023/02/26 11:37:12;;;;;;;;;;;;;;;;;;5029241;28;20399;-81
2023/02/26 11:39:37;;;;;;;;;;;;;;;;;;5063520;28;20361;-83
2023/02/26 11:42:03;;;;;;;;;;;;;;;;;;5044235;28;20369;-84
2023/02/26 11:44:28;;;;;;;;;;;;;;;;;;5062053;28;19925;-86
2023/02/26 11:46:53;;;;;;;;;;;;;;;;;;5049482;28;19913;-84
2023/02/26 11:49:18;;;;;;;;;;;;;;;;;;5048978;28;19923;-83
2023/02/26 11:51:43;;;;;;;;;;;;;;;;;;5051873;28;19920;-83
2023/02/26 11:54:08;;;;;;;;;;;;;;;;;;5052392;28;19913;-83
2023/02/26 11:56:34;;;;;;;;;;;;;;;;;;5052297;28;21629;-84
2023/02/26 11:58:59;;;;;;;;;;;;;;;;;;5051770;28;19963;-85
2023/02/26 12:01:25;;;;;;;;;;;;;;;;;;5068453;28;19913;-83
2023/02/26 12:03:52;;;;;;;;;;;;;;;;;;5052838;28;19912;-83
2023/02/26 12:06:17;;;;;;;;;;;;;;;;;;5052897;28;19913;-84
2023/02/26 12:08:42;;;;;;;;;;;;;;;;;;5045708;28;19923;-84
2023/02/26 12:11:07;;;;;;;;;;;;;;;;;;5069517;28;19919;-85
2023/02/26 12:13:32;;;;;;;;;;;;;;;;;;5046983;28;19913;-85
2023/02/26 12:15:58;;;;;;;;;;;;;;;;;;5049846;28;19916;-85
2023/02/26 12:18:23;;;;;;;;;;;;;;;;;;5048720;28;19970;-87
2023/02/26 12:20:48;;;;;;;;;;;;;;;;;;5043293;28;20003;-86
2023/02/26 12:23:13;;;;;;;;;;;;;;;;;;5065191;28;20272;-84
2023/02/26 12:25:38;;;;;;;;;;;;;;;;;;5059758;28;19920;-83
2023/02/26 12:28:03;;;;;;;;;;;;;;;;;;5049371;28;19916;-85
2023/02/26 12:30:29;;;;;;;;;;;;;;;;;;5042562;28;19925;-84
2023/02/26 12:32:57;;;;;;;;;;;;;;;;;;5046950;28;19917;-85
2023/02/26 12:35:22;;;;;;;;;;;;;;;;;;5063120;28;20007;-87
2023/02/26 12:37:48;;;;;;;;;;;;;;;;;;5046731;28;19988;-87
2023/02/26 12:40:13;;;;;;;;;;;;;;;;;;5043791;28;20015;-79
2023/02/26 12:42:38;;;;;;;;;;;;;;;;;;5041923;28;19920;-87
2023/02/26 12:45:03;;;;;;;;;;;;;;;;;;5041707;28;19970;-81
2023/02/26 12:47:28;;;;;;;;;;;;;;;;;;5045424;28;19927;-82
2023/02/26 12:49:53;;;;;;;;;;;;;;;;;;5045889;28;19920;-82
2023/02/26 12:52:18;;;;;;;;;;;;;;;;;;5045365;28;19916;-80
2023/02/26 12:54:44;;;;;;;;;;;;;;;;;;5043714;28;19970;-81
2023/02/26 12:57:09;;;;;;;;;;;;;;;;;;5045084;28;19970;-82
2023/02/26 12:59:34;;;;;;;;;;;;;;;;;;5044816;28;19928;-85
2023/02/26 13:01:59;;;;;;;;;;;;;;;;;;5047754;28;19917;-92
2023/02/26 13:04:24;;;;;;;;;;;;;;;;;;5044756;28;19912;-93
2023/02/26 13:06:49;;;;;;;;;;;;;;;;;;5050311;28;19913;-90
2023/02/26 13:09:31;;;;;;;;;;;;;;;;;;;;;
2023/02/26 13:11:56;;;;;;;;;;;;;;;;;;5061705;28;19912;-83
2023/02/26 13:14:21;;;;;;;;;;;;;;;;;;5060023;28;20192;-84
2023/02/26 13:16:46;;;;;;;;;;;;;;;;;;5045707;28;19955;-82
2023/02/26 13:19:12;;;;;;;;;;;;;;;;;;5048514;28;21602;-82
2023/02/26 13:21:37;;;;;;;;;;;;;;;;;;5062467;28;19917;-81
2023/02/26 13:24:04;;;;;;;;;;;;;;;;;;5049690;28;19995;-81
2023/02/26 13:26:29;;;;;;;;;;;;;;;;;;5052576;28;19924;-82
2023/02/26 13:28:54;;;;;;;;;;;;;;;;;;5052160;28;19912;-82
2023/02/26 13:31:19;;;;;;;;;;;;;;;;;;5064907;28;19916;-83
2023/02/26 13:33:44;;;;;;;;;;;;;;;;;;5070829;28;19952;-82
2023/02/26 13:36:10;;;;;;;;;;;;;;;;;;5055252;28;19919;-81
2023/02/26 13:38:35;;;;;;;;;;;;;;;;;;5048404;28;20304;-81
2023/02/26 13:41:00;;;;;;;;;;;;;;;;;;5055289;28;20004;-81
2023/02/26 13:43:25;;;;;;;;;;;;;;;;;;5043712;28;19921;-81
2023/02/26 13:45:51;;;;;;;;;;;;;;;;;;5047219;28;19952;-77
2023/02/26 13:48:16;;;;;;;;;;;;;;;;;;5048237;28;19920;-81
2023/02/26 13:50:41;;;;;;;;;;;;;;;;;;5042020;28;20373;-81
2023/02/26 13:53:06;;;;;;;;;;;;;;;;;;5045734;28;19957;-80
2023/02/26 13:55:31;;;;;;;;;;;;;;;;;;5043083;28;19913;-80
2023/02/26 13:57:56;;;;;;;;;;;;;;;;;;5051409;28;19969;-80
2023/02/26 14:00:22;;;;;;;;;;;;;;;;;;5044557;28;20007;-81
2023/02/26 14:02:47;;;;;;;;;;;;;;;;;;5051779;28;19982;-80
2023/02/26 14:05:12;;;;;;;;;;;;;;;;;;5051346;28;20006;-77
2023/02/26 14:07:37;;;;;;;;;;;;;;;;;;5050086;28;19917;-80
2023/02/26 14:10:03;;;;;;;;;;;;;;;;;;5052406;28;20388;-82
2023/02/26 14:12:29;;;;;;;;;;;;;;;;;;5045003;28;20363;-83
2023/02/26 14:14:54;;;;;;;;;;;;;;;;;;5048427;28;19924;-82
2023/02/26 14:17:19;;;;;;;;;;;;;;;;;;5049838;28;19925;-82
2023/02/26 14:19:44;;;;;;;;;;;;;;;;;;5049537;28;19917;-86
2023/02/26 14:22:09;;;;;;;;;;;;;;;;;;5049994;28;19917;-87
2023/02/26 14:24:35;;;;;;;;;;;;;;;;;;5048743;28;19916;-90
2023/02/26 14:27:00;;;;;;;;;;;;;;;;;;5050874;28;19920;-86
2023/02/26 14:29:26;;;;;;;;;;;;;;;;;;5048606;28;19913;-84
2023/02/26 14:31:51;;;;;;;;;;;;;;;;;;5049118;28;19999;-84
2023/02/26 14:34:16;;;;;;;;;;;;;;;;;;5048080;28;20389;-84
2023/02/26 14:36:41;;;;;;;;;;;;;;;;;;5052612;28;19978;-85
2023/02/26 14:39:08;;;;;;;;;;;;;;;;;;5053440;28;19983;-85
2023/02/26 14:41:35;;;;;;;;;;;;;;;;;;5048772;28;19924;-84
2023/02/26 14:44:00;;;;;;;;;;;;;;;;;;5030752;28;19912;-84
2023/02/26 14:46:25;;;;;;;;;;;;;;;;;;5028073;28;19912;-86
2023/02/26 14:48:51;;;;;;;;;;;;;;;;;;5038705;28;19919;-84
2023/02/26 14:51:16;;;;;;;;;;;;;;;;;;5037469;28;20281;-85
2023/02/26 14:53:41;;;;;;;;;;;;;;;;;;5032179;28;19928;-84
2023/02/26 14:56:06;;;;;;;;;;;;;;;;;;5032799;28;20000;-83
2023/02/26 14:58:31;;;;;;;;;;;;;;;;;;5054356;28;20143;-84
2023/02/26 15:00:56;;;;;;;;;;;;;;;;;;5029318;28;19913;-83
2023/02/26 15:03:21;;;;;;;;;;;;;;;;;;5059736;28;19916;-86
2023/02/26 15:05:47;;;;;;;;;;;;;;;;;;5027312;28;20050;-85
2023/02/26 15:08:12;;;;;;;;;;;;;;;;;;5024841;28;19913;-82
2023/02/26 15:10:38;;;;;;;;;;;;;;;;;;5027158;28;19913;-81
2023/02/26 15:13:04;;;;;;;;;;;;;;;;;;5022599;28;20840;-80
2023/02/26 15:15:29;;;;;;;;;;;;;;;;;;5024077;28;19952;-81
2023/02/26 15:17:54;;;;;;;;;;;;;;;;;;5025113;28;19940;-81
2023/02/26 15:20:19;;;;;;;;;;;;;;;;;;5043549;28;19916;-81
2023/02/26 15:22:44;;;;;;;;;;;;;;;;;;5026509;28;20027;-82
2023/02/26 15:25:09;;;;;;;;;;;;;;;;;;5042664;28;19921;-80
2023/02/26 15:27:35;;;;;;;;;;;;;;;;;;5043747;28;19917;-80
2023/02/26 15:30:00;;;;;;;;;;;;;;;;;;5027279;28;19916;-81
2023/02/26 15:32:25;;;;;;;;;;;;;;;;;;5043973;28;20700;-80
2023/02/26 15:34:50;;;;;;;;;;;;;;;;;;5026177;28;19924;-80
2023/02/26 15:37:16;;;;;;;;;;;;;;;;;;5022974;28;19921;-81
2023/02/26 15:39:41;;;;;;;;;;;;;;;;;;5025142;28;20012;-83
2023/02/26 15:42:06;;;;;;;;;;;;;;;;;;5039566;28;19916;-83
2023/02/26 15:44:31;;;;;;;;;;;;;;;;;;5025092;28;19912;-83
2023/02/26 15:46:57;;;;;;;;;;;;;;;;;;5027597;28;19928;-83
2023/02/26 15:49:22;;;;;;;;;;;;;;;;;;5026679;28;20003;-82
2023/02/26 15:51:47;;;;;;;;;;;;;;;;;;5042740;28;19936;-82
2023/02/26 15:54:12;;;;;;;;;;;;;;;;;;5022338;28;20388;-78
2023/02/26 15:56:38;;;;;;;;;;;;;;;;;;5044011;28;20385;-82
2023/02/26 15:59:03;;;;;;;;;;;;;;;;;;5041919;28;19928;-81
2023/02/26 16:01:28;;;;;;;;;;;;;;;;;;5024725;28;19928;-82
2023/02/26 16:03:53;;;;;;;;;;;;;;;;;;5025598;28;20420;-82
2023/02/26 16:06:19;;;;;;;;;;;;;;;;;;5041550;28;19919;-82
2023/02/26 16:08:44;;;;;;;;;;;;;;;;;;5042097;28;19913;-83
2023/02/26 16:11:09;;;;;;;;;;;;;;;;;;5042926;28;19913;-83
2023/02/26 16:13:36;;;;;;;;;;;;;;;;;;5037786;28;19996;-80
2023/02/26 16:16:01;;;;;;;;;;;;;;;;;;5025576;28;20046;-82
2023/02/26 16:18:27;;;;;;;;;;;;;;;;;;5022873;28;19985;-82
2023/02/26 16:20:52;;;;;;;;;;;;;;;;;;5024875;28;20011;-82
2023/02/26 16:23:17;;;;;;;;;;;;;;;;;;5025292;28;20399;-81
2023/02/26 16:25:42;;;;;;;;;;;;;;;;;;5024093;28;19971;-83
2023/02/26 16:28:07;;;;;;;;;;;;;;;;;;5025655;28;19912;-83
2023/02/26 16:30:32;;;;;;;;;;;;;;;;;;5023606;28;19917;-81
2023/02/26 16:32:57;;;;;;;;;;;;;;;;;;5042407;28;19913;-82
2023/02/26 16:35:23;;;;;;;;;;;;;;;;;;5040921;28;19924;-82
2023/02/26 16:37:48;;;;;;;;;;;;;;;;;;5048440;28;20186;-81
2023/02/26 16:40:14;;;;;;;;;;;;;;;;;;5060590;28;20553;-81
2023/02/26 16:42:39;;;;;;;;;;;;;;;;;;5040070;28;19923;-81
2023/02/26 16:45:04;;;;;;;;;;;;;;;;;;5060304;28;19916;-81
2023/02/26 16:47:29;;;;;;;;;;;;;;;;;;5041049;28;19930;-81
2023/02/26 16:49:55;;;;;;;;;;;;;;;;;;5043604;28;20389;-82
2023/02/26 16:52:20;;;;;;;;;;;;;;;;;;5043172;28;19917;-82
2023/02/26 16:54:45;;;;;;;;;;;;;;;;;;5062715;28;19912;-81
2023/02/26 16:57:10;;;;;;;;;;;;;;;;;;5046824;28;20288;-81
2023/02/26 16:59:37;;;;;;;;;;;;;;;;;;5046777;28;19977;-82
2023/02/26 17:02:02;;;;;;;;;;;;;;;;;;5065581;28;19920;-83
2023/02/26 17:04:27;;;;;;;;;;;;;;;;;;5048881;28;19965;-81
2023/02/26 17:06:52;;;;;;;;;;;;;;;;;;5048795;28;19913;-82
2023/02/26 17:09:18;;;;;;;;;;;;;;;;;;5048933;28;19923;-81
2023/02/26 17:11:44;;;;;;;;;;;;;;;;;;5045649;28;20561;-80
2023/02/26 17:14:09;;;;;;;;;;;;;;;;;;5046898;28;19920;-80
2023/02/26 17:16:34;;;;;;;;;;;;;;;;;;5065499;28;20004;-81
2023/02/26 17:19:00;;;;;;;;;;;;;;;;;;5046273;28;19920;-80
2023/02/26 17:21:25;;;;;;;;;;;;;;;;;;5065377;28;19917;-80
2023/02/26 17:23:51;;;;;;;;;;;;;;;;;;5047467;28;19913;-78
2023/02/26 17:26:16;;;;;;;;;;;;;;;;;;5065197;28;19916;-79
2023/02/26 17:28:41;;;;;;;;;;;;;;;;;;5048418;28;20300;-79
2023/02/26 17:31:06;;;;;;;;;;;;;;;;;;5047170;28;20285;-79
2023/02/26 17:33:31;;;;;;;;;;;;;;;;;;5063199;28;20283;-77
2023/02/26 17:35:56;;;;;;;;;;;;;;;;;;5063605;28;19938;-80
2023/02/26 17:38:21;;;;;;;;;;;;;;;;;;5046821;28;19921;-79
2023/02/26 17:40:47;;;;;;;;;;;;;;;;;;5072295;28;19913;-78
2023/02/26 17:43:12;;;;;;;;;;;;;;;;;;5065107;28;20392;-79
2023/02/26 17:45:38;;;;;;;;;;;;;;;;;;5048563;28;19920;-79
2023/02/26 17:48:03;;;;;;;;;;;;;;;;;;5069891;28;19912;-79
2023/02/26 17:50:33;;;;;;;;;;;;;;;;;;5052178;28;20384;-80
2023/02/26 17:52:58;;;;;;;;;;;;;;;;;;5049797;28;19961;-81
2023/02/26 17:55:23;;;;;;;;;;;;;;;;;;5052378;28;19999;-81
2023/02/26 17:57:49;;;;;;;;;;;;;;;;;;5047539;28;19924;-79
2023/02/26 18:00:14;;;;;;;;;;;;;;;;;;5069249;28;19912;-76
2023/02/26 18:02:39;;;;;;;;;;;;;;;;;;5067215;28;19916;-79
2023/02/26 18:05:04;;;;;;;;;;;;;;;;;;5066629;28;19916;-79
2023/02/26 18:07:29;;;;;;;;;;;;;;;;;;5066665;28;20023;-78
2023/02/26 18:09:54;;;;;;;;;;;;;;;;;;5066800;28;19947;-79
2023/02/26 18:12:20;;;;;;;;;;;;;;;;;;5039237;28;19924;-79
2023/02/26 18:14:45;;;;;;;;;;;;;;;;;;5066603;28;19916;-79
2023/02/26 18:17:10;;;;;;;;;;;;;;;;;;5046060;28;20285;-83
2023/02/26 18:19:35;;;;;;;;;;;;;;;;;;5047625;28;20384;-79
2023/02/26 18:22:00;;;;;;;;;;;;;;;;;;5047152;28;20260;-80
2023/02/26 18:24:25;;;;;;;;;;;;;;;;;;5064822;28;20289;-79
2023/02/26 18:26:51;;;;;;;;;;;;;;;;;;5065768;28;19919;-80
2023/02/26 18:29:16;;;;;;;;;;;;;;;;;;5048902;28;19917;-79
2023/02/26 18:31:42;;;;;;;;;;;;;;;;;;5063992;28;20337;-80
2023/02/26 18:34:08;;;;;;;;;;;;;;;;;;5069529;28;20430;-79
2023/02/26 18:36:33;;;;;;;;;;;;;;;;;;5052149;28;20359;-79
2023/02/26 18:39:00;;;;;;;;;;;;;;;;;;5070422;28;19956;-77
2023/02/26 18:41:25;;;;;;;;;;;;;;;;;;5048102;28;19950;-77
2023/02/26 18:43:50;;;;;;;;;;;;;;;;;;5043801;28;19958;-81
2023/02/26 18:46:16;;;;;;;;;;;;;;;;;;5048400;28;19924;-78
2023/02/26 18:48:41;;;;;;;;;;;;;;;;;;5066278;28;20352;-78
2023/02/26 18:51:06;;;;;;;;;;;;;;;;;;5069887;28;20441;-81
2023/02/26 18:53:32;;;;;;;;;;;;;;;;;;5051920;28;19920;-78
2023/02/26 18:55:58;;;;;;;;;;;;;;;;;;5067847;28;19920;-86
2023/02/26 18:58:23;;;;;;;;;;;;;;;;;;5050414;28;19924;-85
2023/02/26 19:00:48;;;;;;;;;;;;;;;;;;5068595;28;19912;-83
2023/02/26 19:03:13;;;;;;;;;;;;;;;;;;5052407;28;19926;-82
2023/02/26 19:05:38;;;;;;;;;;;;;;;;;;5063403;28;20291;-80
2023/02/26 19:08:04;;;;;;;;;;;;;;;;;;5048640;28;20586;-81
2023/02/26 19:10:33;;;;;;;;;;;;;;;;;;5048451;28;20384;-85
2023/02/26 19:12:58;;;;;;;;;;;;;;;;;;5047403;28;19920;-84
2023/02/26 19:15:23;;;;;;;;;;;;;;;;;;5050994;28;20011;-85
2023/02/26 19:17:48;;;;;;;;;;;;;;;;;;5069732;28;19939;-79
2023/02/26 19:20:13;;;;;;;;;;;;;;;;;;5068259;28;19912;-79
2023/02/26 19:22:39;;;;;;;;;;;;;;;;;;5049992;28;20030;-79
2023/02/26 19:25:04;;;;;;;;;;;;;;;;;;5071931;28;19920;-80
2023/02/26 19:27:29;;;;;;;;;;;;;;;;;;5068690;28;19923;-80
2023/02/26 19:29:54;;;;;;;;;;;;;;;;;;5043649;28;21094;-81
2023/02/26 19:32:20;;;;;;;;;;;;;;;;;;5065685;28;20360;-80
2023/02/26 19:34:45;;;;;;;;;;;;;;;;;;5066514;28;19923;-81
2023/02/26 19:37:10;;;;;;;;;;;;;;;;;;5047684;28;20317;-81
2023/02/26 19:39:35;;;;;;;;;;;;;;;;;;5051653;28;20411;-81
2023/02/26 19:42:00;;;;;;;;;;;;;;;;;;5043739;28;19921;-81
2023/02/26 19:44:30;;;;;;;;;;;;;;;;;;5045090;28;21184;-81
